sensor_id;sensor_type;location;lat;lon;timestamp;pressure;altitude;pressure_sealevel;temperature;humidity
13367;BME280;6752;52.612;13.630;2023-05-19T00:02:18;102060.11;;;7.46;100.00
13367;BME280;6752;52.612;13.630;2023-05-19T00:07:20;102064.89;;;7.27;100.00
13367;BME280;6752;52.612;13.630;2023-05-19T00:12:23;102071.89;;;7.33;100.00
13367;BME280;6752;52.612;13.630;2023-05-19T00:17:25;102073.02;;;7.15;100.00
13367;BME280;6752;52.612;13.630;2023-05-19T00:22:28;102070.72;;;7.11;100.00
13367;BME280;6752;52.612;13.630;2023-05-19T00:27:30;102066.09;;;7.03;100.00
13367;BME280;6752;52.612;13.630;2023-05-19T00:32:31;102061.33;;;6.97;100.00
13367;BME280;6752;52.612;13.630;2023-05-19T00:37:34;102055.32;;;6.98;100.00
13367;BME280;6752;52.612;13.630;2023-05-19T00:42:36;102056.00;;;6.79;100.00
13367;BME280;6752;52.612;13.630;2023-05-19T00:47:38;102060.31;;;6.77;100.00
13367;BME280;6752;52.612;13.630;2023-05-19T00:52:41;102074.19;;;6.74;100.00
13367;BME280;6752;52.612;13.630;2023-05-19T00:57:43;102063.52;;;6.72;100.00
13367;BME280;6752;52.612;13.630;2023-05-19T01:02:45;102068.98;;;6.51;100.00
13367;BME280;6752;52.612;13.630;2023-05-19T01:07:47;102072.06;;;6.08;100.00
13367;BME280;6752;52.612;13.630;2023-05-19T01:12:50;102074.27;;;6.17;100.00
13367;BME280;6752;52.612;13.630;2023-05-19T01:18:07;102069.63;;;6.10;100.00
13367;BME280;6752;52.612;13.630;2023-05-19T01:28:47;102052.38;;;5.98;100.00
13367;BME280;6752;52.612;13.630;2023-05-19T01:33:44;102062.70;;;5.98;100.00
13367;BME280;6752;52.612;13.630;2023-05-19T01:38:49;102072.59;;;5.90;100.00
13367;BME280;6752;52.612;13.630;2023-05-19T01:43:49;102068.44;;;5.81;100.00
13367;BME280;6752;52.612;13.630;2023-05-19T01:48:51;102072.42;;;5.82;100.00
13367;BME280;6752;52.612;13.630;2023-05-19T01:53:53;102072.11;;;5.85;100.00
13367;BME280;6752;52.612;13.630;2023-05-19T01:58:57;102072.02;;;5.86;100.00
13367;BME280;6752;52.612;13.630;2023-05-19T02:09:11;102075.70;;;5.95;100.00
13367;BME280;6752;52.612;13.630;2023-05-19T02:14:13;102069.52;;;6.06;100.00
13367;BME280;6752;52.612;13.630;2023-05-19T02:19:23;102068.38;;;6.13;100.00
13367;BME280;6752;52.612;13.630;2023-05-19T02:24:24;102061.34;;;6.20;100.00
13367;BME280;6752;52.612;13.630;2023-05-19T02:29:27;102062.38;;;6.23;100.00
13367;BME280;6752;52.612;13.630;2023-05-19T02:34:29;102064.50;;;6.24;100.00
13367;BME280;6752;52.612;13.630;2023-05-19T02:39:32;102058.26;;;6.28;100.00
13367;BME280;6752;52.612;13.630;2023-05-19T02:44:34;102061.55;;;6.27;100.00
13367;BME280;6752;52.612;13.630;2023-05-19T02:49:36;102051.27;;;6.17;100.00
13367;BME280;6752;52.612;13.630;2023-05-19T02:54:38;102054.42;;;6.13;100.00
13367;BME280;6752;52.612;13.630;2023-05-19T02:59:41;102045.00;;;6.17;100.00
13367;BME280;6752;52.612;13.630;2023-05-19T03:04:43;102044.09;;;6.12;100.00
13367;BME280;6752;52.612;13.630;2023-05-19T03:09:45;102049.41;;;6.09;100.00
13367;BME280;6752;52.612;13.630;2023-05-19T03:14:48;102047.91;;;6.14;100.00
13367;BME280;6752;52.612;13.630;2023-05-19T03:19:50;102044.25;;;6.20;100.00
13367;BME280;6752;52.612;13.630;2023-05-19T03:24:52;102044.27;;;6.15;100.00
13367;BME280;6752;52.612;13.630;2023-05-19T03:29:55;102051.98;;;6.14;100.00
13367;BME280;6752;52.612;13.630;2023-05-19T03:34:57;102045.26;;;6.19;100.00
13367;BME280;6752;52.612;13.630;2023-05-19T03:40:00;102051.69;;;6.18;100.00
13367;BME280;6752;52.612;13.630;2023-05-19T03:45:02;102050.16;;;6.32;100.00
13367;BME280;6752;52.612;13.630;2023-05-19T03:50:04;102048.38;;;6.45;100.00
13367;BME280;6752;52.612;13.630;2023-05-19T03:55:07;102055.85;;;6.38;100.00
13367;BME280;6752;52.612;13.630;2023-05-19T04:00:09;102051.63;;;6.52;100.00
13367;BME280;6752;52.612;13.630;2023-05-19T04:05:14;102048.94;;;6.56;100.00
13367;BME280;6752;52.612;13.630;2023-05-19T04:10:17;102042.77;;;6.72;100.00
13367;BME280;6752;52.612;13.630;2023-05-19T04:15:19;102049.78;;;6.87;100.00
13367;BME280;6752;52.612;13.630;2023-05-19T04:20:21;102047.19;;;6.98;100.00
13367;BME280;6752;52.612;13.630;2023-05-19T04:25:24;102050.94;;;7.09;100.00
13367;BME280;6752;52.612;13.630;2023-05-19T04:30:26;102051.09;;;7.33;100.00
13367;BME280;6752;52.612;13.630;2023-05-19T04:35:28;102055.57;;;7.59;100.00
13367;BME280;6752;52.612;13.630;2023-05-19T04:40:31;102049.81;;;7.82;100.00
13367;BME280;6752;52.612;13.630;2023-05-19T04:45:33;102065.99;;;8.03;100.00
13367;BME280;6752;52.612;13.630;2023-05-19T04:50:36;102061.67;;;8.18;100.00
13367;BME280;6752;52.612;13.630;2023-05-19T04:55:38;102059.10;;;8.44;100.00
13367;BME280;6752;52.612;13.630;2023-05-19T05:00:40;102062.42;;;8.71;100.00
13367;BME280;6752;52.612;13.630;2023-05-19T05:05:43;102065.66;;;8.94;100.00
13367;BME280;6752;52.612;13.630;2023-05-19T05:10:45;102056.08;;;9.26;100.00
13367;BME280;6752;52.612;13.630;2023-05-19T05:15:47;102059.92;;;9.62;100.00
13367;BME280;6752;52.612;13.630;2023-05-19T05:20:50;102058.55;;;9.85;100.00
13367;BME280;6752;52.612;13.630;2023-05-19T05:25:52;102058.53;;;10.16;100.00
13367;BME280;6752;52.612;13.630;2023-05-19T05:30:54;102059.20;;;10.55;100.00
13367;BME280;6752;52.612;13.630;2023-05-19T05:35:57;102058.80;;;10.70;100.00
13367;BME280;6752;52.612;13.630;2023-05-19T05:40:59;102051.26;;;10.79;100.00
13367;BME280;6752;52.612;13.630;2023-05-19T05:46:02;102057.56;;;11.20;100.00
13367;BME280;6752;52.612;13.630;2023-05-19T05:51:04;102054.55;;;11.51;100.00
13367;BME280;6752;52.612;13.630;2023-05-19T05:56:06;102053.67;;;11.83;100.00
13367;BME280;6752;52.612;13.630;2023-05-19T06:01:09;102059.57;;;12.08;100.00
13367;BME280;6752;52.612;13.630;2023-05-19T06:06:11;102058.02;;;12.37;100.00
13367;BME280;6752;52.612;13.630;2023-05-19T06:11:13;102054.94;;;12.85;98.88
13367;BME280;6752;52.612;13.630;2023-05-19T06:16:16;102056.82;;;13.49;90.93
13367;BME280;6752;52.612;13.630;2023-05-19T06:21:25;102053.89;;;13.67;83.38
13367;BME280;6752;52.612;13.630;2023-05-19T06:26:40;102057.33;;;14.22;78.49
13367;BME280;6752;52.612;13.630;2023-05-19T06:31:42;102050.22;;;14.64;76.02
13367;BME280;6752;52.612;13.630;2023-05-19T06:36:45;102045.72;;;14.86;72.63
13367;BME280;6752;52.612;13.630;2023-05-19T06:41:47;102044.08;;;15.71;69.97
13367;BME280;6752;52.612;13.630;2023-05-19T06:46:50;102046.44;;;15.95;70.08
13367;BME280;6752;52.612;13.630;2023-05-19T06:51:52;102047.02;;;16.01;67.84
13367;BME280;6752;52.612;13.630;2023-05-19T06:56:54;102045.11;;;16.26;68.48
13367;BME280;6752;52.612;13.630;2023-05-19T07:01:57;102043.37;;;16.19;67.76
13367;BME280;6752;52.612;13.630;2023-05-19T07:06:59;102043.51;;;16.62;67.75
13367;BME280;6752;52.612;13.630;2023-05-19T07:12:01;102047.26;;;16.46;65.83
13367;BME280;6752;52.612;13.630;2023-05-19T07:17:03;102036.56;;;17.38;65.58
13367;BME280;6752;52.612;13.630;2023-05-19T07:22:05;102042.58;;;17.71;63.96
13367;BME280;6752;52.612;13.630;2023-05-19T07:27:08;102050.20;;;17.24;63.28
13367;BME280;6752;52.612;13.630;2023-05-19T07:32:10;102035.62;;;17.59;61.30
13367;BME280;6752;52.612;13.630;2023-05-19T07:37:12;102039.11;;;17.31;62.17
13367;BME280;6752;52.612;13.630;2023-05-19T07:42:18;102030.21;;;17.83;60.50
13367;BME280;6752;52.612;13.630;2023-05-19T07:47:17;102038.11;;;18.18;60.32
13367;BME280;6752;52.612;13.630;2023-05-19T07:52:19;102033.39;;;17.68;58.33
13367;BME280;6752;52.612;13.630;2023-05-19T07:57:21;102025.66;;;19.14;57.22
13367;BME280;6752;52.612;13.630;2023-05-19T08:02:23;102024.60;;;18.95;55.47
13367;BME280;6752;52.612;13.630;2023-05-19T08:07:26;102022.27;;;20.31;55.81
13367;BME280;6752;52.612;13.630;2023-05-19T08:12:28;102022.23;;;20.03;55.25
13367;BME280;6752;52.612;13.630;2023-05-19T08:17:30;102020.34;;;21.08;53.32
13367;BME280;6752;52.612;13.630;2023-05-19T08:22:33;102010.52;;;21.44;51.07
13367;BME280;6752;52.612;13.630;2023-05-19T08:27:35;102015.70;;;21.63;52.39
13367;BME280;6752;52.612;13.630;2023-05-19T08:32:37;102015.17;;;21.39;50.53
13367;BME280;6752;52.612;13.630;2023-05-19T08:37:40;102021.88;;;21.29;50.70
13367;BME280;6752;52.612;13.630;2023-05-19T08:42:43;102026.23;;;19.93;51.03
13367;BME280;6752;52.612;13.630;2023-05-19T08:47:47;102022.16;;;20.87;49.79
13367;BME280;6752;52.612;13.630;2023-05-19T08:53:39;102017.87;;;21.23;49.68
13367;BME280;6752;52.612;13.630;2023-05-19T08:57:55;102007.97;;;20.83;48.42
13367;BME280;6752;52.612;13.630;2023-05-19T09:02:57;102001.19;;;20.96;47.45
13367;BME280;6752;52.612;13.630;2023-05-19T09:08:00;101999.56;;;21.30;49.36
13367;BME280;6752;52.612;13.630;2023-05-19T09:13:02;101984.05;;;21.10;47.29
13367;BME280;6752;52.612;13.630;2023-05-19T09:18:09;101978.70;;;22.61;47.52
13367;BME280;6752;52.612;13.630;2023-05-19T09:23:10;101976.51;;;21.54;46.24
13367;BME280;6752;52.612;13.630;2023-05-19T09:28:09;101979.77;;;22.26;46.63
13367;BME280;6752;52.612;13.630;2023-05-19T09:33:15;101958.16;;;23.45;45.98
13367;BME280;6752;52.612;13.630;2023-05-19T09:38:17;101963.45;;;20.81;46.63
13367;BME280;6752;52.612;13.630;2023-05-19T09:43:19;101967.80;;;20.42;48.00
13367;BME280;6752;52.612;13.630;2023-05-19T09:48:21;101970.36;;;20.32;47.32
13367;BME280;6752;52.612;13.630;2023-05-19T09:53:24;101960.55;;;20.93;45.68
13367;BME280;6752;52.612;13.630;2023-05-19T09:58:29;101964.30;;;20.13;47.10
13367;BME280;6752;52.612;13.630;2023-05-19T10:03:28;101965.81;;;21.06;50.68
13367;BME280;6752;52.612;13.630;2023-05-19T10:08:32;101954.72;;;20.92;48.11
13367;BME280;6752;52.612;13.630;2023-05-19T10:13:34;101945.55;;;20.89;47.54
13367;BME280;6752;52.612;13.630;2023-05-19T10:18:35;101943.61;;;21.03;46.86
13367;BME280;6752;52.612;13.630;2023-05-19T10:23:37;101938.39;;;20.33;46.75
13367;BME280;6752;52.612;13.630;2023-05-19T10:28:40;101941.59;;;20.61;47.24
13367;BME280;6752;52.612;13.630;2023-05-19T10:34:11;101935.25;;;20.63;46.51
13367;BME280;6752;52.612;13.630;2023-05-19T10:39:09;101937.75;;;20.99;47.81
13367;BME280;6752;52.612;13.630;2023-05-19T10:44:12;101940.16;;;21.15;45.29
13367;BME280;6752;52.612;13.630;2023-05-19T10:49:18;101935.20;;;20.21;45.28
13367;BME280;6752;52.612;13.630;2023-05-19T10:54:13;101933.62;;;20.28;46.29
13367;BME280;6752;52.612;13.630;2023-05-19T10:59:35;101925.51;;;20.71;45.82
13367;BME280;6752;52.612;13.630;2023-05-19T11:04:45;101917.52;;;20.99;46.44
13367;BME280;6752;52.612;13.630;2023-05-19T11:09:53;101922.95;;;22.49;45.02
13367;BME280;6752;52.612;13.630;2023-05-19T11:14:56;101905.19;;;21.71;43.18
13367;BME280;6752;52.612;13.630;2023-05-19T11:19:57;101915.55;;;21.64;44.69
13367;BME280;6752;52.612;13.630;2023-05-19T11:25:00;101914.11;;;20.37;46.34
13367;BME280;6752;52.612;13.630;2023-05-19T11:35:08;101910.17;;;21.37;46.25
13367;BME280;6752;52.612;13.630;2023-05-19T11:40:10;101908.44;;;22.39;45.89
13367;BME280;6752;52.612;13.630;2023-05-19T11:45:12;101906.03;;;21.26;45.04
13367;BME280;6752;52.612;13.630;2023-05-19T11:50:15;101910.33;;;20.87;45.60
13367;BME280;6752;52.612;13.630;2023-05-19T11:55:20;101901.00;;;20.82;44.55
13367;BME280;6752;52.612;13.630;2023-05-19T12:00:22;101902.13;;;21.11;43.90
13367;BME280;6752;52.612;13.630;2023-05-19T12:05:25;101894.01;;;20.80;45.40
13367;BME280;6752;52.612;13.630;2023-05-19T12:10:28;101895.94;;;20.55;45.34
13367;BME280;6752;52.612;13.630;2023-05-19T12:15:29;101889.64;;;20.32;44.15
13367;BME280;6752;52.612;13.630;2023-05-19T12:20:32;101887.89;;;20.78;46.79
13367;BME280;6752;52.612;13.630;2023-05-19T12:25:34;101896.92;;;20.16;46.90
13367;BME280;6752;52.612;13.630;2023-05-19T12:30:37;101897.44;;;20.04;47.19
13367;BME280;6752;52.612;13.630;2023-05-19T12:35:40;101892.73;;;21.76;47.18
13367;BME280;6752;52.612;13.630;2023-05-19T12:40:41;101887.63;;;20.24;44.87
13367;BME280;6752;52.612;13.630;2023-05-19T12:45:43;101892.62;;;20.44;46.69
13367;BME280;6752;52.612;13.630;2023-05-19T12:50:46;101891.72;;;20.50;46.83
13367;BME280;6752;52.612;13.630;2023-05-19T12:55:50;101899.36;;;19.59;47.47
13367;BME280;6752;52.612;13.630;2023-05-19T13:00:50;101892.66;;;19.24;47.74
13367;BME280;6752;52.612;13.630;2023-05-19T13:05:53;101882.36;;;19.20;47.50
13367;BME280;6752;52.612;13.630;2023-05-19T13:10:55;101893.97;;;19.53;48.11
13367;BME280;6752;52.612;13.630;2023-05-19T13:15:58;101884.87;;;21.47;46.84
13367;BME280;6752;52.612;13.630;2023-05-19T13:21:00;101877.73;;;21.37;45.10
13367;BME280;6752;52.612;13.630;2023-05-19T13:26:02;101870.37;;;20.48;46.84
13367;BME280;6752;52.612;13.630;2023-05-19T13:31:05;101878.55;;;20.10;46.46
13367;BME280;6752;52.612;13.630;2023-05-19T13:36:07;101874.62;;;20.14;49.06
13367;BME280;6752;52.612;13.630;2023-05-19T13:41:09;101882.81;;;19.39;48.73
13367;BME280;6752;52.612;13.630;2023-05-19T13:46:12;101883.52;;;18.87;49.15
13367;BME280;6752;52.612;13.630;2023-05-19T13:51:14;101888.63;;;18.87;49.34
13367;BME280;6752;52.612;13.630;2023-05-19T13:56:17;101888.02;;;19.19;50.04
13367;BME280;6752;52.612;13.630;2023-05-19T14:01:19;101882.65;;;18.98;49.82
13367;BME280;6752;52.612;13.630;2023-05-19T14:06:21;101885.55;;;19.06;50.33
13367;BME280;6752;52.612;13.630;2023-05-19T14:11:24;101878.30;;;19.02;49.75
13367;BME280;6752;52.612;13.630;2023-05-19T14:16:26;101889.03;;;18.53;50.68
13367;BME280;6752;52.612;13.630;2023-05-19T14:21:29;101895.38;;;18.33;50.24
13367;BME280;6752;52.612;13.630;2023-05-19T14:26:31;101886.59;;;18.68;51.23
13367;BME280;6752;52.612;13.630;2023-05-19T14:31:33;101892.91;;;18.46;51.40
13367;BME280;6752;52.612;13.630;2023-05-19T14:36:36;101901.14;;;18.20;51.97
13367;BME280;6752;52.612;13.630;2023-05-19T14:41:38;101898.59;;;18.10;51.67
13367;BME280;6752;52.612;13.630;2023-05-19T14:46:40;101900.39;;;18.62;51.87
13367;BME280;6752;52.612;13.630;2023-05-19T14:51:43;101910.41;;;18.92;51.59
13367;BME280;6752;52.612;13.630;2023-05-19T14:56:45;101895.83;;;20.08;51.15
13367;BME280;6752;52.612;13.630;2023-05-19T15:01:48;101895.84;;;19.25;49.22
13367;BME280;6752;52.612;13.630;2023-05-19T15:06:50;101897.44;;;19.37;49.65
13367;BME280;6752;52.612;13.630;2023-05-19T15:11:52;101903.16;;;18.48;50.23
13367;BME280;6752;52.612;13.630;2023-05-19T15:16:55;101891.52;;;19.40;50.16
13367;BME280;6752;52.612;13.630;2023-05-19T15:21:57;101889.08;;;18.55;50.39
13367;BME280;6752;52.612;13.630;2023-05-19T15:27:00;101893.75;;;18.66;50.21
13367;BME280;6752;52.612;13.630;2023-05-19T15:32:02;101899.88;;;18.57;50.48
13367;BME280;6752;52.612;13.630;2023-05-19T15:37:04;101891.95;;;18.72;50.02
13367;BME280;6752;52.612;13.630;2023-05-19T15:42:07;101902.16;;;18.34;51.51
13367;BME280;6752;52.612;13.630;2023-05-19T15:47:09;101894.91;;;18.19;51.75
13367;BME280;6752;52.612;13.630;2023-05-19T15:52:11;101878.86;;;18.36;51.97
13367;BME280;6752;52.612;13.630;2023-05-19T15:57:14;101881.12;;;18.51;51.25
13367;BME280;6752;52.612;13.630;2023-05-19T16:02:16;101878.84;;;18.16;51.95
13367;BME280;6752;52.612;13.630;2023-05-19T16:07:19;101889.31;;;18.02;51.84
13367;BME280;6752;52.612;13.630;2023-05-19T16:12:21;101886.31;;;17.80;52.94
13367;BME280;6752;52.612;13.630;2023-05-19T16:17:23;101877.44;;;17.84;52.42
13367;BME280;6752;52.612;13.630;2023-05-19T16:22:26;101873.09;;;17.94;53.09
13367;BME280;6752;52.612;13.630;2023-05-19T16:27:28;101869.09;;;17.70;53.43
13367;BME280;6752;52.612;13.630;2023-05-19T16:32:30;101874.70;;;17.51;53.37
13367;BME280;6752;52.612;13.630;2023-05-19T16:37:32;101872.96;;;17.54;53.91
13367;BME280;6752;52.612;13.630;2023-05-19T16:42:35;101870.23;;;17.39;54.27
13367;BME280;6752;52.612;13.630;2023-05-19T16:47:37;101870.19;;;17.15;54.07
13367;BME280;6752;52.612;13.630;2023-05-19T16:52:40;101872.34;;;16.98;54.22
13367;BME280;6752;52.612;13.630;2023-05-19T16:57:42;101877.97;;;17.12;54.69
13367;BME280;6752;52.612;13.630;2023-05-19T17:02:44;101885.03;;;17.14;54.36
13367;BME280;6752;52.612;13.630;2023-05-19T17:07:47;101877.19;;;17.14;54.82
13367;BME280;6752;52.612;13.630;2023-05-19T17:12:49;101872.09;;;16.94;55.79
13367;BME280;6752;52.612;13.630;2023-05-19T17:17:52;101873.38;;;16.70;55.82
13367;BME280;6752;52.612;13.630;2023-05-19T17:22:54;101869.31;;;16.73;56.17
13367;BME280;6752;52.612;13.630;2023-05-19T17:27:56;101878.20;;;16.57;56.14
13367;BME280;6752;52.612;13.630;2023-05-19T17:32:59;101878.14;;;16.51;57.18
13367;BME280;6752;52.612;13.630;2023-05-19T17:38:01;101876.98;;;16.43;57.15
13367;BME280;6752;52.612;13.630;2023-05-19T17:43:03;101876.17;;;16.31;57.12
13367;BME280;6752;52.612;13.630;2023-05-19T17:48:06;101890.52;;;16.18;57.13
13367;BME280;6752;52.612;13.630;2023-05-19T17:53:08;101884.05;;;16.27;57.30
13367;BME280;6752;52.612;13.630;2023-05-19T17:58:11;101899.47;;;16.01;58.60
13367;BME280;6752;52.612;13.630;2023-05-19T18:03:13;101904.92;;;15.95;58.66
13367;BME280;6752;52.612;13.630;2023-05-19T18:08:15;101900.69;;;15.83;58.88
13367;BME280;6752;52.612;13.630;2023-05-19T18:13:18;101888.04;;;15.70;59.20
13367;BME280;6752;52.612;13.630;2023-05-19T18:18:20;101891.51;;;15.55;60.01
13367;BME280;6752;52.612;13.630;2023-05-19T18:23:23;101896.58;;;15.55;61.02
13367;BME280;6752;52.612;13.630;2023-05-19T18:28:25;101894.52;;;15.34;61.33
13367;BME280;6752;52.612;13.630;2023-05-19T18:33:27;101900.16;;;15.30;62.16
13367;BME280;6752;52.612;13.630;2023-05-19T18:38:30;101908.73;;;15.28;62.80
13367;BME280;6752;52.612;13.630;2023-05-19T18:43:32;101905.92;;;15.07;63.47
13367;BME280;6752;52.612;13.630;2023-05-19T18:48:34;101908.01;;;14.95;64.23
13367;BME280;6752;52.612;13.630;2023-05-19T18:53:37;101919.45;;;14.86;64.42
13367;BME280;6752;52.612;13.630;2023-05-19T18:58:39;101926.17;;;14.74;64.88
13367;BME280;6752;52.612;13.630;2023-05-19T19:03:42;101925.68;;;14.61;65.64
13367;BME280;6752;52.612;13.630;2023-05-19T19:08:44;101916.38;;;14.43;66.76
13367;BME280;6752;52.612;13.630;2023-05-19T19:13:46;101928.03;;;14.41;67.05
13367;BME280;6752;52.612;13.630;2023-05-19T19:18:49;101923.58;;;14.21;68.06
13367;BME280;6752;52.612;13.630;2023-05-19T19:23:54;101928.42;;;14.26;67.80
13367;BME280;6752;52.612;13.630;2023-05-19T19:28:57;101928.47;;;14.03;69.37
13367;BME280;6752;52.612;13.630;2023-05-19T19:33:59;101929.93;;;13.95;69.39
13367;BME280;6752;52.612;13.630;2023-05-19T19:39:01;101928.69;;;13.85;71.37
13367;BME280;6752;52.612;13.630;2023-05-19T19:44:04;101934.30;;;13.14;78.46
13367;BME280;6752;52.612;13.630;2023-05-19T19:49:06;101933.56;;;13.12;78.12
13367;BME280;6752;52.612;13.630;2023-05-19T19:54:08;101937.08;;;12.93;80.41
13367;BME280;6752;52.612;13.630;2023-05-19T19:59:11;101936.44;;;12.88;81.22
13367;BME280;6752;52.612;13.630;2023-05-19T20:04:13;101936.14;;;12.66;81.85
13367;BME280;6752;52.612;13.630;2023-05-19T20:09:15;101930.18;;;12.53;83.02
13367;BME280;6752;52.612;13.630;2023-05-19T20:14:18;101935.20;;;12.46;83.77
13367;BME280;6752;52.612;13.630;2023-05-19T20:19:20;101937.70;;;12.37;85.43
13367;BME280;6752;52.612;13.630;2023-05-19T20:24:22;101938.42;;;12.18;86.06
13367;BME280;6752;52.612;13.630;2023-05-19T20:29:28;101942.15;;;12.07;86.58
13367;BME280;6752;52.612;13.630;2023-05-19T20:34:30;101941.52;;;11.94;89.85
13367;BME280;6752;52.612;13.630;2023-05-19T20:39:35;101957.38;;;11.81;89.24
13367;BME280;6752;52.612;13.630;2023-05-19T20:44:38;101960.13;;;11.74;89.96
13367;BME280;6752;52.612;13.630;2023-05-19T20:49:40;101962.91;;;11.66;90.28
13367;BME280;6752;52.612;13.630;2023-05-19T20:54:42;101964.98;;;11.53;91.88
13367;BME280;6752;52.612;13.630;2023-05-19T20:59:45;101961.08;;;11.38;94.00
13367;BME280;6752;52.612;13.630;2023-05-19T21:04:47;101963.44;;;11.45;92.55
13367;BME280;6752;52.612;13.630;2023-05-19T21:09:49;101958.92;;;11.23;94.87
13367;BME280;6752;52.612;13.630;2023-05-19T21:14:52;101949.31;;;11.09;96.69
13367;BME280;6752;52.612;13.630;2023-05-19T21:19:54;101963.02;;;11.05;97.28
13367;BME280;6752;52.612;13.630;2023-05-19T21:24:56;101956.36;;;10.89;99.10
13367;BME280;6752;52.612;13.630;2023-05-19T21:29:59;101970.70;;;10.80;99.50
13367;BME280;6752;52.612;13.630;2023-05-19T21:35:01;101975.72;;;10.69;99.28
13367;BME280;6752;52.612;13.630;2023-05-19T21:40:04;101981.45;;;10.67;100.00
13367;BME280;6752;52.612;13.630;2023-05-19T21:45:06;101992.78;;;10.52;99.72
13367;BME280;6752;52.612;13.630;2023-05-19T21:50:08;101996.21;;;10.28;100.00
13367;BME280;6752;52.612;13.630;2023-05-19T21:55:10;101998.56;;;10.24;100.00
13367;BME280;6752;52.612;13.630;2023-05-19T22:00:12;101988.45;;;10.02;100.00
13367;BME280;6752;52.612;13.630;2023-05-19T22:05:14;101997.94;;;10.13;100.00
13367;BME280;6752;52.612;13.630;2023-05-19T22:10:17;101993.80;;;9.95;100.00
13367;BME280;6752;52.612;13.630;2023-05-19T22:15:19;101993.80;;;10.03;100.00
13367;BME280;6752;52.612;13.630;2023-05-19T22:20:22;101992.67;;;10.05;100.00
13367;BME280;6752;52.612;13.630;2023-05-19T22:25:24;101994.27;;;10.14;100.00
13367;BME280;6752;52.612;13.630;2023-05-19T22:30:26;101995.20;;;9.99;100.00
13367;BME280;6752;52.612;13.630;2023-05-19T22:35:29;101995.81;;;9.86;100.00
13367;BME280;6752;52.612;13.630;2023-05-19T22:40:31;101998.95;;;9.72;100.00
13367;BME280;6752;52.612;13.630;2023-05-19T22:45:33;101995.81;;;9.48;100.00
13367;BME280;6752;52.612;13.630;2023-05-19T22:50:35;101999.94;;;9.29;100.00
13367;BME280;6752;52.612;13.630;2023-05-19T22:55:38;101998.22;;;9.32;100.00
13367;BME280;6752;52.612;13.630;2023-05-19T23:00:40;101997.16;;;9.21;100.00
13367;BME280;6752;52.612;13.630;2023-05-19T23:05:42;102001.09;;;9.19;100.00
13367;BME280;6752;52.612;13.630;2023-05-19T23:10:45;101999.42;;;9.29;100.00
13367;BME280;6752;52.612;13.630;2023-05-19T23:15:47;101993.78;;;9.23;100.00
13367;BME280;6752;52.612;13.630;2023-05-19T23:20:49;101999.80;;;9.11;100.00
13367;BME280;6752;52.612;13.630;2023-05-19T23:25:52;101999.42;;;8.98;100.00
13367;BME280;6752;52.612;13.630;2023-05-19T23:30:54;101994.50;;;8.98;100.00
13367;BME280;6752;52.612;13.630;2023-05-19T23:35:57;102000.39;;;8.94;100.00
13367;BME280;6752;52.612;13.630;2023-05-19T23:40:59;101988.94;;;8.91;100.00
13367;BME280;6752;52.612;13.630;2023-05-19T23:46:01;101983.48;;;8.80;100.00
13367;BME280;6752;52.612;13.630;2023-05-19T23:51:04;101984.56;;;9.02;100.00
13367;BME280;6752;52.612;13.630;2023-05-19T23:56:06;101985.53;;;9.09;100.00
